sensor_id;sensor_type;location;lat;lon;timestamp;pressure;altitude;pressure_sealevel;temperature;humidity
20043;BME280;10182;52.896;6.496;2023-04-08T00:02:33;102237.19;;;3.72;100.00
20043;BME280;10182;52.896;6.496;2023-04-08T00:07:35;102231.94;;;3.71;100.00
20043;BME280;10182;52.896;6.496;2023-04-08T00:12:38;102232.81;;;3.70;100.00
20043;BME280;10182;52.896;6.496;2023-04-08T00:17:41;102234.47;;;3.55;100.00
20043;BME280;10182;52.896;6.496;2023-04-08T00:22:42;102243.19;;;3.53;100.00
20043;BME280;10182;52.896;6.496;2023-04-08T00:27:45;102244.03;;;3.49;100.00
20043;BME280;10182;52.896;6.496;2023-04-08T00:32:48;102246.59;;;3.43;100.00
20043;BME280;10182;52.896;6.496;2023-04-08T00:37:50;102239.50;;;3.28;100.00
20043;BME280;10182;52.896;6.496;2023-04-08T00:42:51;102242.97;;;3.20;100.00
20043;BME280;10182;52.896;6.496;2023-04-08T00:47:55;102247.25;;;3.11;100.00
20043;BME280;10182;52.896;6.496;2023-04-08T00:52:57;102253.34;;;3.10;100.00
20043;BME280;10182;52.896;6.496;2023-04-08T00:57:58;102247.16;;;3.01;100.00
20043;BME280;10182;52.896;6.496;2023-04-08T01:03:06;102248.91;;;3.01;100.00
20043;BME280;10182;52.896;6.496;2023-04-08T01:08:14;102248.91;;;2.99;100.00
20043;BME280;10182;52.896;6.496;2023-04-08T01:13:17;102250.69;;;3.03;100.00
20043;BME280;10182;52.896;6.496;2023-04-08T01:18:23;102257.59;;;2.97;100.00
20043;BME280;10182;52.896;6.496;2023-04-08T01:23:32;102261.94;;;2.93;100.00
20043;BME280;10182;52.896;6.496;2023-04-08T01:28:39;102264.47;;;2.85;100.00
20043;BME280;10182;52.896;6.496;2023-04-08T01:33:43;102254.84;;;2.83;100.00
20043;BME280;10182;52.896;6.496;2023-04-08T01:38:46;102256.59;;;2.82;100.00
20043;BME280;10182;52.896;6.496;2023-04-08T01:43:51;102265.25;;;2.77;100.00
20043;BME280;10182;52.896;6.496;2023-04-08T01:48:54;102269.53;;;2.67;100.00
20043;BME280;10182;52.896;6.496;2023-04-08T01:53:57;102272.13;;;2.64;100.00
20043;BME280;10182;52.896;6.496;2023-04-08T01:59:00;102275.50;;;2.58;100.00
20043;BME280;10182;52.896;6.496;2023-04-08T02:04:05;102278.09;;;2.52;100.00
20043;BME280;10182;52.896;6.496;2023-04-08T02:09:07;102284.97;;;2.44;100.00
20043;BME280;10182;52.896;6.496;2023-04-08T02:14:10;102288.41;;;2.38;100.00
20043;BME280;10182;52.896;6.496;2023-04-08T02:19:14;102282.19;;;2.30;100.00
20043;BME280;10182;52.896;6.496;2023-04-08T02:24:19;102292.56;;;2.25;100.00
20043;BME280;10182;52.896;6.496;2023-04-08T02:29:23;102295.13;;;2.19;100.00
20043;BME280;10182;52.896;6.496;2023-04-08T02:34:26;102296.81;;;2.17;100.00
20043;BME280;10182;52.896;6.496;2023-04-08T02:39:31;102290.69;;;2.13;100.00
20043;BME280;10182;52.896;6.496;2023-04-08T02:44:34;102297.66;;;2.14;100.00
20043;BME280;10182;52.896;6.496;2023-04-08T02:49:36;102298.50;;;2.12;100.00
20043;BME280;10182;52.896;6.496;2023-04-08T02:54:38;102302.00;;;2.11;100.00
20043;BME280;10182;52.896;6.496;2023-04-08T02:59:41;102308.03;;;2.07;100.00
20043;BME280;10182;52.896;6.496;2023-04-08T03:04:42;102306.16;;;1.98;100.00
20043;BME280;10182;52.896;6.496;2023-04-08T03:09:45;102321.84;;;1.99;100.00
20043;BME280;10182;52.896;6.496;2023-04-08T03:14:48;102318.44;;;2.03;100.00
20043;BME280;10182;52.896;6.496;2023-04-08T03:19:50;102327.13;;;2.01;100.00
20043;BME280;10182;52.896;6.496;2023-04-08T03:24:51;102322.66;;;1.95;100.00
20043;BME280;10182;52.896;6.496;2023-04-08T03:29:54;102328.78;;;1.94;100.00
20043;BME280;10182;52.896;6.496;2023-04-08T03:34:57;102335.69;;;1.92;100.00
20043;BME280;10182;52.896;6.496;2023-04-08T03:39:58;102326.97;;;1.90;100.00
20043;BME280;10182;52.896;6.496;2023-04-08T03:45:01;102333.88;;;1.85;100.00
20043;BME280;10182;52.896;6.496;2023-04-08T03:50:04;102329.47;;;1.84;100.00
20043;BME280;10182;52.896;6.496;2023-04-08T03:55:06;102337.31;;;1.84;100.00
20043;BME280;10182;52.896;6.496;2023-04-08T04:00:10;102335.56;;;1.83;100.00
20043;BME280;10182;52.896;6.496;2023-04-08T04:05:12;102340.78;;;1.81;100.00
20043;BME280;10182;52.896;6.496;2023-04-08T04:10:14;102339.00;;;1.80;100.00
20043;BME280;10182;52.896;6.496;2023-04-08T04:15:17;102346.81;;;1.79;100.00
20043;BME280;10182;52.896;6.496;2023-04-08T04:20:19;102351.16;;;1.75;100.00
20043;BME280;10182;52.896;6.496;2023-04-08T04:25:21;102346.72;;;1.69;100.00
20043;BME280;10182;52.896;6.496;2023-04-08T04:30:25;102353.59;;;1.64;100.00
20043;BME280;10182;52.896;6.496;2023-04-08T04:35:27;102355.28;;;1.62;100.00
20043;BME280;10182;52.896;6.496;2023-04-08T04:40:28;102357.88;;;1.61;100.00
20043;BME280;10182;52.896;6.496;2023-04-08T04:45:32;102366.53;;;1.58;100.00
20043;BME280;10182;52.896;6.496;2023-04-08T04:50:33;102375.28;;;1.60;100.00
20043;BME280;10182;52.896;6.496;2023-04-08T04:55:35;102377.00;;;1.60;100.00
20043;BME280;10182;52.896;6.496;2023-04-08T05:00:38;102384.78;;;1.55;100.00
20043;BME280;10182;52.896;6.496;2023-04-08T05:05:40;102385.63;;;1.54;100.00
20043;BME280;10182;52.896;6.496;2023-04-08T05:10:42;102393.38;;;1.49;100.00
20043;BME280;10182;52.896;6.496;2023-04-08T05:15:45;102388.16;;;1.49;100.00
20043;BME280;10182;52.896;6.496;2023-04-08T05:20:46;102398.50;;;1.45;100.00
20043;BME280;10182;52.896;6.496;2023-04-08T05:25:48;102403.00;;;1.50;100.00
20043;BME280;10182;52.896;6.496;2023-04-08T05:30:51;102401.50;;;1.66;100.00
20043;BME280;10182;52.896;6.496;2023-04-08T05:35:53;102408.69;;;1.80;100.00
20043;BME280;10182;52.896;6.496;2023-04-08T05:40:55;102409.84;;;1.97;100.00
20043;BME280;10182;52.896;6.496;2023-04-08T05:45:58;102424.94;;;2.17;100.00
20043;BME280;10182;52.896;6.496;2023-04-08T05:51:00;102416.59;;;2.43;100.00
20043;BME280;10182;52.896;6.496;2023-04-08T05:56:03;102425.72;;;2.71;100.00
20043;BME280;10182;52.896;6.496;2023-04-08T06:01:06;102430.41;;;3.00;100.00
20043;BME280;10182;52.896;6.496;2023-04-08T06:06:08;102441.00;;;3.08;100.00
20043;BME280;10182;52.896;6.496;2023-04-08T06:11:10;102441.16;;;3.23;100.00
20043;BME280;10182;52.896;6.496;2023-04-08T06:16:15;102443.88;;;3.32;100.00
20043;BME280;10182;52.896;6.496;2023-04-08T06:21:17;102439.66;;;3.50;100.00
20043;BME280;10182;52.896;6.496;2023-04-08T06:26:19;102443.34;;;3.67;100.00
20043;BME280;10182;52.896;6.496;2023-04-08T06:31:22;102445.13;;;3.73;100.00
20043;BME280;10182;52.896;6.496;2023-04-08T06:36:24;102450.41;;;3.76;100.00
20043;BME280;10182;52.896;6.496;2023-04-08T06:41:25;102457.38;;;3.76;100.00
20043;BME280;10182;52.896;6.496;2023-04-08T06:46:28;102463.63;;;3.88;100.00
20043;BME280;10182;52.896;6.496;2023-04-08T06:51:30;102472.47;;;4.03;100.00
20043;BME280;10182;52.896;6.496;2023-04-08T06:56:32;102473.47;;;4.17;100.00
20043;BME280;10182;52.896;6.496;2023-04-08T07:01:35;102470.00;;;4.23;100.00
20043;BME280;10182;52.896;6.496;2023-04-08T07:06:36;102476.25;;;4.39;100.00
20043;BME280;10182;52.896;6.496;2023-04-08T07:11:38;102483.41;;;4.65;100.00
20043;BME280;10182;52.896;6.496;2023-04-08T07:16:41;102487.09;;;4.99;100.00
20043;BME280;10182;52.896;6.496;2023-04-08T07:21:43;102486.34;;;5.36;100.00
20043;BME280;10182;52.896;6.496;2023-04-08T07:26:45;102479.41;;;5.81;100.00
20043;BME280;10182;52.896;6.496;2023-04-08T07:31:48;102482.06;;;6.14;100.00
20043;BME280;10182;52.896;6.496;2023-04-08T07:36:51;102482.94;;;6.22;100.00
20043;BME280;10182;52.896;6.496;2023-04-08T07:41:52;102489.13;;;6.07;100.00
20043;BME280;10182;52.896;6.496;2023-04-08T07:46:55;102495.25;;;6.17;100.00
20043;BME280;10182;52.896;6.496;2023-04-08T07:51:57;102486.47;;;6.35;100.00
20043;BME280;10182;52.896;6.496;2023-04-08T07:56:59;102493.47;;;6.47;100.00
20043;BME280;10182;52.896;6.496;2023-04-08T08:02:03;102501.31;;;6.56;100.00
20043;BME280;10182;52.896;6.496;2023-04-08T08:07:05;102503.97;;;6.56;100.00
20043;BME280;10182;52.896;6.496;2023-04-08T08:12:07;102498.63;;;6.93;100.00
20043;BME280;10182;52.896;6.496;2023-04-08T08:17:10;102503.00;;;6.99;100.00
20043;BME280;10182;52.896;6.496;2023-04-08T08:22:12;102510.03;;;6.93;100.00
20043;BME280;10182;52.896;6.496;2023-04-08T08:27:13;102511.75;;;7.05;100.00
20043;BME280;10182;52.896;6.496;2023-04-08T08:32:16;102517.97;;;6.75;100.00
20043;BME280;10182;52.896;6.496;2023-04-08T08:37:18;102506.47;;;7.08;100.00
20043;BME280;10182;52.896;6.496;2023-04-08T08:42:20;102511.78;;;6.90;100.00
20043;BME280;10182;52.896;6.496;2023-04-08T08:47:23;102523.19;;;7.03;100.00
20043;BME280;10182;52.896;6.496;2023-04-08T08:52:25;102514.34;;;7.18;100.00
20043;BME280;10182;52.896;6.496;2023-04-08T08:57:27;102517.81;;;7.26;100.00
20043;BME280;10182;52.896;6.496;2023-04-08T09:02:31;102524.78;;;7.36;100.00
20043;BME280;10182;52.896;6.496;2023-04-08T09:07:35;102525.59;;;7.44;100.00
20043;BME280;10182;52.896;6.496;2023-04-08T09:12:52;102534.28;;;7.70;100.00
20043;BME280;10182;52.896;6.496;2023-04-08T09:17:56;102522.72;;;7.88;100.00
20043;BME280;10182;52.896;6.496;2023-04-08T09:23:00;102522.75;;;7.86;100.00
20043;BME280;10182;52.896;6.496;2023-04-08T09:28:02;102519.00;;;8.10;100.00
20043;BME280;10182;52.896;6.496;2023-04-08T09:33:06;102519.84;;;8.16;100.00
20043;BME280;10182;52.896;6.496;2023-04-08T09:38:07;102520.75;;;8.14;100.00
20043;BME280;10182;52.896;6.496;2023-04-08T09:43:12;102519.78;;;8.26;100.00
20043;BME280;10182;52.896;6.496;2023-04-08T09:48:21;102530.28;;;8.34;100.00
20043;BME280;10182;52.896;6.496;2023-04-08T09:53:29;102531.13;;;8.39;100.00
20043;BME280;10182;52.896;6.496;2023-04-08T09:58:40;102545.06;;;8.57;100.00
20043;BME280;10182;52.896;6.496;2023-04-08T10:03:48;102540.22;;;8.99;100.00
20043;BME280;10182;52.896;6.496;2023-04-08T10:08:53;102526.22;;;8.89;100.00
20043;BME280;10182;52.896;6.496;2023-04-08T10:13:56;102536.78;;;8.89;100.00
20043;BME280;10182;52.896;6.496;2023-04-08T10:18:59;102532.41;;;8.87;100.00
20043;BME280;10182;52.896;6.496;2023-04-08T10:24:01;102539.25;;;9.05;100.00
20043;BME280;10182;52.896;6.496;2023-04-08T10:34:52;102536.69;;;9.00;100.00
20043;BME280;10182;52.896;6.496;2023-04-08T10:39:53;102531.44;;;8.97;100.00
20043;BME280;10182;52.896;6.496;2023-04-08T10:45:00;102517.66;;;8.67;100.00
20043;BME280;10182;52.896;6.496;2023-04-08T10:50:13;102526.28;;;8.81;100.00
20043;BME280;10182;52.896;6.496;2023-04-08T10:55:14;102526.25;;;8.88;100.00
20043;BME280;10182;52.896;6.496;2023-04-08T11:00:18;102528.78;;;8.97;100.00
20043;BME280;10182;52.896;6.496;2023-04-08T11:05:22;102521.28;;;8.55;100.00
20043;BME280;10182;52.896;6.496;2023-04-08T11:10:24;102529.28;;;8.49;100.00
20043;BME280;10182;52.896;6.496;2023-04-08T11:15:29;102538.09;;;8.48;100.00
20043;BME280;10182;52.896;6.496;2023-04-08T11:20:33;102538.81;;;8.67;100.00
20043;BME280;10182;52.896;6.496;2023-04-08T11:25:36;102541.53;;;8.56;100.00
20043;BME280;10182;52.896;6.496;2023-04-08T11:30:39;102535.38;;;8.54;100.00
20043;BME280;10182;52.896;6.496;2023-04-08T11:35:43;102539.00;;;8.42;100.00
20043;BME280;10182;52.896;6.496;2023-04-08T11:40:51;102542.41;;;8.58;100.00
20043;BME280;10182;52.896;6.496;2023-04-08T11:45:53;102529.09;;;8.68;100.00
20043;BME280;10182;52.896;6.496;2023-04-08T11:51:03;102533.22;;;8.93;100.00
20043;BME280;10182;52.896;6.496;2023-04-08T11:56:17;102532.22;;;9.05;100.00
20043;BME280;10182;52.896;6.496;2023-04-08T12:01:19;102540.03;;;9.16;100.00
20043;BME280;10182;52.896;6.496;2023-04-08T12:06:22;102535.34;;;9.37;100.00
20043;BME280;10182;52.896;6.496;2023-04-08T12:11:26;102542.38;;;9.39;100.00
20043;BME280;10182;52.896;6.496;2023-04-08T12:16:28;102536.88;;;9.55;100.00
20043;BME280;10182;52.896;6.496;2023-04-08T12:21:31;102535.81;;;9.68;100.00
20043;BME280;10182;52.896;6.496;2023-04-08T12:26:33;102539.38;;;9.65;100.00
20043;BME280;10182;52.896;6.496;2023-04-08T12:31:35;102543.81;;;9.65;100.00
20043;BME280;10182;52.896;6.496;2023-04-08T12:36:38;102554.59;;;9.48;100.00
20043;BME280;10182;52.896;6.496;2023-04-08T12:41:41;102543.31;;;9.35;100.00
20043;BME280;10182;52.896;6.496;2023-04-08T12:46:42;102546.88;;;9.32;100.00
20043;BME280;10182;52.896;6.496;2023-04-08T12:51:45;102554.09;;;9.18;100.00
20043;BME280;10182;52.896;6.496;2023-04-08T12:56:47;102556.81;;;9.12;100.00
20043;BME280;10182;52.896;6.496;2023-04-08T13:01:49;102555.13;;;9.06;100.00
20043;BME280;10182;52.896;6.496;2023-04-08T13:06:52;102552.41;;;9.12;100.00
20043;BME280;10182;52.896;6.496;2023-04-08T13:11:54;102546.19;;;9.17;100.00
20043;BME280;10182;52.896;6.496;2023-04-08T13:16:57;102552.53;;;9.00;100.00
20043;BME280;10182;52.896;6.496;2023-04-08T13:22:00;102543.50;;;9.18;100.00
20043;BME280;10182;52.896;6.496;2023-04-08T13:27:02;102550.47;;;9.27;100.00
20043;BME280;10182;52.896;6.496;2023-04-08T13:32:04;102544.41;;;9.15;100.00
20043;BME280;10182;52.896;6.496;2023-04-08T13:37:07;102548.97;;;9.04;100.00
20043;BME280;10182;52.896;6.496;2023-04-08T13:42:09;102548.91;;;9.09;100.00
20043;BME280;10182;52.896;6.496;2023-04-08T13:47:10;102548.91;;;9.09;100.00
20043;BME280;10182;52.896;6.496;2023-04-08T13:52:13;102551.53;;;9.12;100.00
20043;BME280;10182;52.896;6.496;2023-04-08T13:57:16;102548.78;;;9.18;100.00
20043;BME280;10182;52.896;6.496;2023-04-08T14:02:17;102545.25;;;9.19;100.00
20043;BME280;10182;52.896;6.496;2023-04-08T14:07:21;102548.13;;;9.02;100.00
20043;BME280;10182;52.896;6.496;2023-04-08T14:12:22;102542.78;;;9.05;100.00
20043;BME280;10182;52.896;6.496;2023-04-08T14:17:24;102543.59;;;9.12;100.00
20043;BME280;10182;52.896;6.496;2023-04-08T14:22:27;102533.00;;;9.13;100.00
20043;BME280;10182;52.896;6.496;2023-04-08T14:27:29;102526.75;;;9.21;100.00
20043;BME280;10182;52.896;6.496;2023-04-08T14:32:30;102525.78;;;9.26;100.00
20043;BME280;10182;52.896;6.496;2023-04-08T14:37:34;102524.94;;;9.24;100.00
20043;BME280;10182;52.896;6.496;2023-04-08T14:42:37;102515.19;;;9.28;100.00
20043;BME280;10182;52.896;6.496;2023-04-08T14:47:39;102509.72;;;9.42;100.00
20043;BME280;10182;52.896;6.496;2023-04-08T14:52:42;102506.09;;;9.49;100.00
20043;BME280;10182;52.896;6.496;2023-04-08T14:57:44;102501.47;;;9.65;100.00
20043;BME280;10182;52.896;6.496;2023-04-08T15:02:46;102491.63;;;9.75;100.00
20043;BME280;10182;52.896;6.496;2023-04-08T15:07:49;102503.16;;;9.69;100.00
20043;BME280;10182;52.896;6.496;2023-04-08T15:12:51;102494.31;;;9.70;100.00
20043;BME280;10182;52.896;6.496;2023-04-08T15:17:52;102486.19;;;9.82;100.00
20043;BME280;10182;52.896;6.496;2023-04-08T15:22:55;102489.00;;;9.72;100.00
20043;BME280;10182;52.896;6.496;2023-04-08T15:27:57;102483.69;;;9.72;100.00
20043;BME280;10182;52.896;6.496;2023-04-08T15:32:59;102490.00;;;9.64;100.00
20043;BME280;10182;52.896;6.496;2023-04-08T15:38:02;102479.00;;;9.89;100.00
20043;BME280;10182;52.896;6.496;2023-04-08T15:43:03;102487.69;;;9.99;100.00
20043;BME280;10182;52.896;6.496;2023-04-08T15:48:06;102485.16;;;9.93;100.00
20043;BME280;10182;52.896;6.496;2023-04-08T15:53:09;102486.09;;;9.89;100.00
20043;BME280;10182;52.896;6.496;2023-04-08T15:58:10;102503.84;;;9.82;100.00
20043;BME280;10182;52.896;6.496;2023-04-08T16:03:12;102500.31;;;9.83;100.00
20043;BME280;10182;52.896;6.496;2023-04-08T16:08:15;102507.47;;;9.76;100.00
20043;BME280;10182;52.896;6.496;2023-04-08T16:13:17;102505.69;;;9.77;100.00
20043;BME280;10182;52.896;6.496;2023-04-08T16:18:19;102513.88;;;9.60;100.00
20043;BME280;10182;52.896;6.496;2023-04-08T16:23:22;102518.47;;;9.45;100.00
20043;BME280;10182;52.896;6.496;2023-04-08T16:28:24;102521.06;;;9.48;100.00
20043;BME280;10182;52.896;6.496;2023-04-08T16:33:26;102522.03;;;9.43;100.00
20043;BME280;10182;52.896;6.496;2023-04-08T16:38:31;102518.44;;;9.47;100.00
20043;BME280;10182;52.896;6.496;2023-04-08T16:43:33;102521.25;;;9.38;100.00
20043;BME280;10182;52.896;6.496;2023-04-08T16:48:35;102519.53;;;9.34;100.00
20043;BME280;10182;52.896;6.496;2023-04-08T16:53:39;102521.25;;;9.36;100.00
20043;BME280;10182;52.896;6.496;2023-04-08T16:58:42;102521.28;;;9.33;100.00
20043;BME280;10182;52.896;6.496;2023-04-08T17:03:43;102522.19;;;9.32;100.00
20043;BME280;10182;52.896;6.496;2023-04-08T17:08:48;102531.13;;;9.23;100.00
20043;BME280;10182;52.896;6.496;2023-04-08T17:13:50;102520.59;;;9.20;100.00
20043;BME280;10182;52.896;6.496;2023-04-08T17:18:52;102535.56;;;9.18;100.00
20043;BME280;10182;52.896;6.496;2023-04-08T17:23:55;102537.41;;;9.14;100.00
20043;BME280;10182;52.896;6.496;2023-04-08T17:28:57;102530.38;;;9.12;100.00
20043;BME280;10182;52.896;6.496;2023-04-08T17:33:58;102535.66;;;9.13;100.00
20043;BME280;10182;52.896;6.496;2023-04-08T17:39:01;102535.66;;;9.13;100.00
20043;BME280;10182;52.896;6.496;2023-04-08T17:44:03;102548.00;;;9.11;100.00
20043;BME280;10182;52.896;6.496;2023-04-08T17:49:05;102549.84;;;9.06;100.00
20043;BME280;10182;52.896;6.496;2023-04-08T17:54:08;102544.53;;;9.08;100.00
20043;BME280;10182;52.896;6.496;2023-04-08T17:59:10;102536.56;;;9.11;100.00
20043;BME280;10182;52.896;6.496;2023-04-08T18:04:11;102543.56;;;9.13;100.00
20043;BME280;10182;52.896;6.496;2023-04-08T18:09:15;102545.47;;;9.02;100.00
20043;BME280;10182;52.896;6.496;2023-04-08T18:14:16;102544.63;;;8.98;100.00
20043;BME280;10182;52.896;6.496;2023-04-08T18:19:18;102540.19;;;9.04;100.00
20043;BME280;10182;52.896;6.496;2023-04-08T18:24:21;102545.34;;;9.11;100.00
20043;BME280;10182;52.896;6.496;2023-04-08T18:29:23;102550.69;;;9.07;100.00
20043;BME280;10182;52.896;6.496;2023-04-08T18:34:24;102546.38;;;9.00;100.00
20043;BME280;10182;52.896;6.496;2023-04-08T18:39:27;102553.38;;;9.05;100.00
20043;BME280;10182;52.896;6.496;2023-04-08T18:44:29;102542.91;;;8.94;100.00
20043;BME280;10182;52.896;6.496;2023-04-08T18:49:31;102558.81;;;8.91;100.00
20043;BME280;10182;52.896;6.496;2023-04-08T18:54:34;102566.75;;;8.91;100.00
20043;BME280;10182;52.896;6.496;2023-04-08T18:59:36;102568.50;;;8.91;100.00
20043;BME280;10182;52.896;6.496;2023-04-08T19:04:38;102567.63;;;8.90;100.00
20043;BME280;10182;52.896;6.496;2023-04-08T19:09:41;102572.88;;;8.93;100.00
20043;BME280;10182;52.896;6.496;2023-04-08T19:14:43;102569.38;;;8.91;100.00
20043;BME280;10182;52.896;6.496;2023-04-08T19:19:44;102567.56;;;8.95;100.00
20043;BME280;10182;52.896;6.496;2023-04-08T19:24:47;102571.13;;;8.94;100.00
20043;BME280;10182;52.896;6.496;2023-04-08T19:29:49;102577.31;;;8.91;100.00
20043;BME280;10182;52.896;6.496;2023-04-08T19:34:51;102577.28;;;8.93;100.00
20043;BME280;10182;52.896;6.496;2023-04-08T19:39:54;102568.47;;;8.94;100.00
20043;BME280;10182;52.896;6.496;2023-04-08T19:44:56;102575.59;;;8.87;100.00
20043;BME280;10182;52.896;6.496;2023-04-08T19:50:00;102574.78;;;8.80;100.00
20043;BME280;10182;52.896;6.496;2023-04-08T19:55:04;102581.78;;;8.81;100.00
20043;BME280;10182;52.896;6.496;2023-04-08T20:00:06;102587.91;;;8.88;100.00
20043;BME280;10182;52.896;6.496;2023-04-08T20:05:08;102577.31;;;8.90;100.00
20043;BME280;10182;52.896;6.496;2023-04-08T20:10:15;102592.31;;;8.88;100.00
20043;BME280;10182;52.896;6.496;2023-04-08T20:15:17;102587.06;;;8.85;100.00
20043;BME280;10182;52.896;6.496;2023-04-08T20:20:19;102586.16;;;8.86;100.00
20043;BME280;10182;52.896;6.496;2023-04-08T20:25:22;102589.63;;;8.92;100.00
20043;BME280;10182;52.896;6.496;2023-04-08T20:30:24;102602.03;;;8.87;100.00
20043;BME280;10182;52.896;6.496;2023-04-08T20:35:25;102591.41;;;8.90;100.00
20043;BME280;10182;52.896;6.496;2023-04-08T20:40:29;102604.63;;;8.90;100.00
20043;BME280;10182;52.896;6.496;2023-04-08T20:45:30;102602.84;;;8.91;100.00
20043;BME280;10182;52.896;6.496;2023-04-08T20:50:32;102605.59;;;8.83;100.00
20043;BME280;10182;52.896;6.496;2023-04-08T20:55:35;102607.38;;;8.78;100.00
20043;BME280;10182;52.896;6.496;2023-04-08T21:00:37;102607.38;;;8.79;100.00
20043;BME280;10182;52.896;6.496;2023-04-08T21:05:38;102600.28;;;8.81;100.00
20043;BME280;10182;52.896;6.496;2023-04-08T21:10:42;102611.75;;;8.84;100.00
20043;BME280;10182;52.896;6.496;2023-04-08T21:15:44;102608.22;;;8.81;100.00
20043;BME280;10182;52.896;6.496;2023-04-08T21:20:46;102603.88;;;8.76;100.00
20043;BME280;10182;52.896;6.496;2023-04-08T21:25:50;102608.25;;;8.78;100.00
20043;BME280;10182;52.896;6.496;2023-04-08T21:30:52;102599.47;;;8.78;100.00
20043;BME280;10182;52.896;6.496;2023-04-08T21:35:55;102610.09;;;8.70;100.00
20043;BME280;10182;52.896;6.496;2023-04-08T21:40:58;102611.00;;;8.68;100.00
20043;BME280;10182;52.896;6.496;2023-04-08T21:45:59;102596.97;;;8.62;100.00
20043;BME280;10182;52.896;6.496;2023-04-08T21:51:01;102601.22;;;8.76;100.00
20043;BME280;10182;52.896;6.496;2023-04-08T21:56:06;102597.75;;;8.74;100.00
20043;BME280;10182;52.896;6.496;2023-04-08T22:01:08;102603.06;;;8.71;100.00
20043;BME280;10182;52.896;6.496;2023-04-08T22:06:09;102600.41;;;8.72;100.00
20043;BME280;10182;52.896;6.496;2023-04-08T22:11:12;102608.34;;;8.68;100.00
20043;BME280;10182;52.896;6.496;2023-04-08T22:16:14;102608.34;;;8.68;100.00
20043;BME280;10182;52.896;6.496;2023-04-08T22:21:16;102616.31;;;8.64;100.00
20043;BME280;10182;52.896;6.496;2023-04-08T22:26:19;102610.16;;;8.64;100.00
20043;BME280;10182;52.896;6.496;2023-04-08T22:31:21;102604.03;;;8.60;100.00
20043;BME280;10182;52.896;6.496;2023-04-08T22:36:22;102606.72;;;8.56;100.00
20043;BME280;10182;52.896;6.496;2023-04-08T22:41:25;102606.75;;;8.50;100.00
20043;BME280;10182;52.896;6.496;2023-04-08T22:46:27;102606.78;;;8.40;100.00
20043;BME280;10182;52.896;6.496;2023-04-08T22:51:29;102608.53;;;8.43;100.00
20043;BME280;10182;52.896;6.496;2023-04-08T22:56:32;102607.78;;;8.25;100.00
20043;BME280;10182;52.896;6.496;2023-04-08T23:01:34;102614.03;;;8.15;100.00
20043;BME280;10182;52.896;6.496;2023-04-08T23:06:36;102607.84;;;8.18;100.00
20043;BME280;10182;52.896;6.496;2023-04-08T23:11:39;102605.19;;;8.19;100.00
20043;BME280;10182;52.896;6.496;2023-04-08T23:16:41;102607.88;;;8.11;100.00
20043;BME280;10182;52.896;6.496;2023-04-08T23:21:42;102601.81;;;8.00;100.00
20043;BME280;10182;52.896;6.496;2023-04-08T23:26:46;102601.75;;;8.06;100.00
20043;BME280;10182;52.896;6.496;2023-04-08T23:31:48;102600.97;;;7.92;100.00
20043;BME280;10182;52.896;6.496;2023-04-08T23:36:50;102606.31;;;7.83;100.00
20043;BME280;10182;52.896;6.496;2023-04-08T23:41:53;102604.47;;;7.94;100.00
20043;BME280;10182;52.896;6.496;2023-04-08T23:46:56;102601.84;;;7.92;100.00
20043;BME280;10182;52.896;6.496;2023-04-08T23:51:58;102593.94;;;7.91;100.00
20043;BME280;10182;52.896;6.496;2023-04-08T23:57:01;102590.47;;;7.81;100.00
